Date,TemperatureHighF,TemperatureAvgF,TemperatureLowF,DewpointHighF,DewpointAvgF,DewpointLowF,HumidityHigh,HumidityAvg,HumidityLow,PressureMaxIn,PressureMinIn,WindSpeedMaxMPH,WindSpeedAvgMPH,GustSpeedMaxMPH,PrecipitationSumIn
2013-1-1,49.8,47.3,43.2,49.3,43.2,31.1,98,87,56,30.15,29.93,2,0,2,1.21
2013-1-2,49.8,44.7,39.0,49.5,42.5,37.6,99,92,84,30.14,29.89,5,0,6,0.08
2013-1-3,48.9,39.6,30.7,38.7,34.2,26.4,95,82,51,30.31,30.09,6,0,6,0.00
2013-1-4,51.3,36.8,26.6,29.1,23.2,16.5,90,63,26,30.37,30.27,8,0,9,0.00
2013-1-5,47.8,37.2,26.1,36.3,27.5,22.5,92,70,44,30.40,30.26,2,0,2,0.03
2013-1-6,48.2,41.8,37.6,40.3,36.4,32.5,91,81,68,30.28,30.11,9,1,10,0.00
2013-1-7,54.1,41.2,29.1,33.4,30.6,26.6,92,68,39,30.39,30.22,4,0,5,0.00
2013-1-8,51.6,44.0,34.0,41.5,35.6,29.3,86,73,57,30.43,30.32,5,0,6,0.00
2013-1-9,63.5,55.5,48.7,53.6,49.1,40.5,92,79,68,30.43,30.34,3,0,3,0.00
2013-1-10,65.7,59.0,54.3,56.8,53.8,51.3,97,83,68,30.40,30.22,5,0,6,0.02
2013-1-11,66.2,61.6,57.4,64.2,60.9,56.5,99,98,90,30.23,30.08,5,0,5,0.44
2013-1-12,71.6,62.6,57.6,64.6,60.2,57.2,100,93,73,30.14,30.03,5,0,5,0.01
2013-1-13,70.2,63.5,58.8,63.0,59.9,57.2,97,88,74,30.09,29.99,6,0,7,0.04
2013-1-14,64.2,59.9,53.4,63.7,59.2,52.9,99,98,94,30.08,29.98,5,0,5,0.93
2013-1-15,62.6,57.6,52.5,62.6,57.3,52.0,100,99,98,30.07,29.93,3,0,3,1.10
2013-1-16,62.8,55.8,52.3,62.8,55.4,52.0,100,99,97,29.97,29.88,4,0,4,0.77
2013-1-17,56.1,49.3,36.7,55.9,48.6,34.3,100,98,90,30.20,29.63,10,0,10,1.43
2013-1-18,53.8,40.6,30.0,34.5,29.3,24.1,93,68,33,30.49,30.20,5,0,5,0.00
2013-1-19,52.3,39.6,28.9,33.4,29.5,25.7,95,70,36,30.46,30.22,6,0,6,0.00
2013-1-20,62.1,45.6,32.0,40.3,33.6,28.8,89,66,32,30.22,30.07,11,1,12,0.00
2013-1-21,57.6,43.1,31.8,34.9,28.4,16.7,92,60,37,30.13,30.02,10,1,13,0.00
2013-1-22,45.0,34.5,28.2,17.8,13.3,9.7,58,42,28,30.30,30.11,11,2,11,0.00
2013-1-23,48.2,37.6,26.6,34.5,22.1,12.6,68,54,41,30.37,30.16,13,1,13,0.00
2013-1-24,52.2,45.0,32.4,41.4,23.7,4.8,82,48,18,30.39,30.08,11,1,13,0.00
2013-1-25,35.4,30.0,27.5,34.2,19.6,9.3,95,68,41,30.43,30.15,8,0,9,0.00
2013-1-26,55.4,42.3,35.4,39.4,34.9,29.1,98,78,45,30.28,30.13,7,1,7,0.01
2013-1-27,48.4,40.7,34.0,35.1,32.4,28.6,87,73,58,30.49,30.27,8,0,8,0.00
2013-1-28,50.7,45.0,41.2,45.1,38.3,32.2,96,78,67,30.43,30.27,3,0,4,0.00
2013-1-29,69.3,55.4,41.4,60.6,51.9,40.3,97,89,69,30.28,29.96,3,0,4,0.03
2013-1-30,65.8,58.7,42.4,63.9,56.7,39.2,98,93,86,29.96,29.48,15,2,17,1.89
2013-1-31,46.4,39.5,33.4,39.2,26.3,21.9,89,60,39,30.12,29.70,17,3,17,0.00
2013-2-1,40.3,34.9,25.9,29.5,14.6,1.8,72,46,20,30.37,30.06,13,2,13,0.00
2013-2-2,46.6,33.5,21.7,37.8,21.4,5.9,96,65,21,30.36,30.12,8,0,8,0.31
2013-2-3,51.1,40.8,32.4,38.5,32.2,27.5,97,74,43,30.12,29.97,14,2,14,0.00
2013-2-4,48.7,38.9,28.9,33.1,27.8,23.5,84,66,45,30.13,30.01,4,0,8,0.00
2013-2-5,55.6,45.0,32.4,46.6,38.6,27.5,96,79,63,30.03,29.96,9,1,9,0.00
2013-2-6,66.6,50.7,36.5,45.3,36.7,30.4,99,66,28,30.16,30.02,6,0,7,0.00
2013-2-7,48.9,45.6,41.9,45.3,39.0,31.3,96,79,51,30.15,29.93,7,0,7,0.28
2013-2-8,56.1,47.4,38.1,48.9,42.1,31.6,98,83,51,30.14,29.90,10,1,10,0.01
2013-2-9,60.4,44.0,28.0,33.6,28.7,21.0,95,61,23,30.30,30.10,4,0,4,0.00
2013-2-10,56.5,46.8,39.4,46.6,37.3,27.7,97,71,46,30.35,30.11,7,0,7,1.37
2013-2-11,55.0,51.0,46.6,54.0,50.2,45.9,99,97,93,30.11,30.02,6,0,7,0.27
2013-2-12,56.7,48.5,43.3,47.5,40.5,30.9,95,76,43,30.09,29.84,4,0,4,0.23
2013-2-13,49.6,43.6,36.3,46.8,41.0,32.5,98,91,78,29.93,29.72,14,1,15,0.07
2013-2-14,55.9,42.0,30.2,37.2,33.1,28.9,96,73,42,30.07,29.93,8,0,8,0.00
2013-2-15,61.0,45.1,30.4,41.5,34.3,29.1,97,70,36,30.10,29.96,17,1,17,0.00
2013-2-16,42.1,36.2,28.6,34.3,22.4,11.8,83,59,35,30.11,29.91,21,2,21,0.00
2013-2-17,43.5,32.9,22.5,19.2,11.5,6.8,66,42,23,30.29,30.11,13,1,15,0.00
2013-2-18,57.6,40.4,23.5,28.9,23.3,15.8,82,53,31,30.38,30.17,7,0,7,0.00
2013-2-19,53.8,43.4,37.8,44.1,31.4,17.1,96,67,29,30.17,29.96,14,1,15,0.32
2013-2-20,55.6,40.9,30.0,18.5,13.1,-2.7,55,35,11,30.16,30.07,10,1,10,0.00
2013-2-21,61.5,45.4,29.5,39.7,23.2,15.1,85,45,22,30.20,29.96,6,0,6,0.09
2013-2-22,43.5,40.1,38.1,40.3,38.9,36.7,97,95,86,30.19,30.05,7,0,8,1.38
2013-2-23,48.6,44.1,40.3,47.1,43.3,39.6,98,97,94,30.07,29.84,6,0,6,0.49
2013-2-24,65.1,50.0,37.8,45.5,36.6,25.9,100,67,25,30.01,29.88,7,0,7,0.00
2013-2-25,51.1,43.5,37.2,37.6,31.4,27.1,94,63,47,30.05,29.89,12,1,12,0.03
2013-2-26,43.3,39.0,35.1,42.3,37.5,33.8,97,94,79,29.89,29.59,9,1,10,1.25
2013-2-27,55.8,46.3,39.4,37.8,35.0,32.5,83,66,46,29.87,29.75,13,2,13,0.00
2013-2-28,46.8,39.9,34.7,36.3,28.8,25.3,69,64,54,29.96,29.80,13,2,13,0.00
2013-3-1,41.5,37.3,32.7,30.9,28.7,25.2,81,71,62,29.98,29.92,9,1,11,0.00
2013-3-2,42.6,36.1,31.5,30.7,28.1,23.2,90,73,55,30.01,29.90,12,2,12,0.00
2013-3-3,41.5,32.9,27.1,23.2,19.4,17.6,71,58,41,30.07,29.97,12,2,13,0.00
2013-3-4,58.5,41.5,26.2,30.4,23.3,17.8,73,51,28,30.18,30.02,7,0,7,0.00
2013-3-5,62.2,49.2,37.9,54.9,41.7,27.1,92,76,62,30.07,29.64,21,2,21,0.32
2013-3-6,37.9,34.6,30.7,30.0,26.3,21.6,88,71,62,30.17,29.82,18,3,18,0.00
2013-3-7,60.1,41.6,27.7,35.1,30.0,25.0,92,67,36,30.26,30.13,9,1,9,0.00
2013-3-8,64.0,45.1,28.2,32.7,28.5,25.3,91,57,27,30.31,30.18,6,0,6,0.00
2013-3-9,61.7,48.6,35.2,35.2,30.3,25.3,71,51,33,30.33,30.20,7,0,7,0.00
2013-3-10,67.6,55.7,46.0,43.2,37.2,33.3,64,51,34,30.23,30.07,4,0,6,0.00
2013-3-11,61.2,54.8,51.6,56.3,50.8,43.2,98,87,65,30.09,29.77,6,0,8,1.31
2013-3-12,61.3,49.9,38.8,53.1,37.2,27.3,98,67,29,30.06,29.77,14,2,14,0.03
2013-3-13,52.2,43.1,35.4,32.2,26.5,20.3,79,54,32,30.22,30.05,19,2,19,0.00
2013-3-14,56.5,40.5,26.4,23.4,17.7,7.9,72,44,16,30.35,30.20,11,1,11,0.00
2013-3-15,72.0,53.2,34.2,44.1,35.3,20.3,88,54,34,30.22,29.95,11,1,12,0.00
2013-3-16,75.4,63.6,52.3,47.5,43.4,39.4,69,49,28,29.95,29.81,16,2,16,0.00
2013-3-17,70.3,61.4,51.4,54.1,48.1,41.5,80,62,49,29.96,29.85,8,1,9,0.00
2013-3-18,57.6,48.1,44.1,53.6,45.6,42.8,98,91,73,29.99,29.78,6,0,6,0.40
2013-3-19,63.5,51.8,42.4,45.5,32.7,19.6,99,57,23,30.06,29.88,15,1,15,0.00
2013-3-20,58.3,47.4,37.9,29.8,19.3,14.0,61,34,19,30.11,29.86,16,1,20,0.00
2013-3-21,46.9,38.6,29.5,29.8,15.2,4.5,64,41,24,29.96,29.85,12,2,12,0.00
2013-3-22,50.4,41.9,32.4,32.9,23.9,13.3,61,49,37,30.06,29.96,4,0,4,0.00
2013-3-23,52.2,46.6,41.0,48.6,42.4,32.5,97,86,60,30.03,29.81,4,0,5,0.71
2013-3-24,49.6,46.8,41.7,46.4,44.9,33.4,97,93,72,29.83,29.50,16,1,16,1.27
2013-3-25,41.7,36.7,32.2,33.4,26.2,23.0,77,66,52,30.04,29.64,16,3,17,0.00
2013-3-26,41.5,35.4,30.4,28.2,25.5,23.2,83,68,50,30.26,30.00,16,2,16,0.00
2013-3-27,55.0,40.9,27.1,26.1,23.9,20.3,86,54,29,30.32,30.21,12,1,12,0.00
2013-3-28,61.5,46.0,32.2,30.0,25.4,17.1,73,47,24,30.32,30.19,12,1,12,0.00
2013-3-29,65.8,50.0,34.9,37.9,31.0,23.4,80,51,27,30.34,30.17,8,0,8,0.00
2013-3-30,71.4,57.1,44.8,54.5,42.8,36.7,96,62,36,30.19,29.99,9,0,9,0.27
2013-3-31,65.1,59.0,54.9,59.4,55.4,53.8,98,88,69,30.00,29.82,7,1,9,0.44
2013-4-1,70.5,60.8,51.6,55.9,46.5,36.5,98,65,32,29.98,29.81,17,1,17,0.00
2013-4-2,66.9,55.1,45.7,41.2,31.5,21.9,68,43,23,30.13,29.98,9,1,10,0.00
2013-4-3,60.3,52.6,44.6,44.6,32.0,25.5,92,48,31,30.18,30.05,9,0,10,0.22
2013-4-4,46.8,42.4,38.8,43.7,39.5,35.6,96,90,69,30.17,29.95,9,1,12,0.26
2013-4-5,68.4,51.9,40.1,49.3,41.4,32.9,98,72,28,30.04,29.92,9,1,11,0.00
2013-4-6,72.9,57.1,39.0,41.2,37.4,35.1,92,52,27,30.18,30.04,6,0,6,0.00
2013-4-7,74.5,60.8,45.3,51.1,44.7,38.1,83,57,37,30.19,30.04,4,0,5,0.00
2013-4-8,79.2,66.4,54.9,57.9,52.7,46.9,84,63,41,30.12,30.01,6,0,7,0.00
2013-4-9,81.9,68.7,54.1,60.6,55.9,51.3,93,66,41,30.16,30.03,5,0,5,0.00
2013-4-10,84.7,69.9,54.7,61.3,57.1,52.3,95,67,41,30.08,29.89,6,0,6,0.00
2013-4-11,79.2,69.0,59.9,68.0,60.6,55.6,96,76,56,29.90,29.62,9,0,9,1.21
2013-4-12,68.4,62.8,54.3,63.0,50.6,37.6,97,69,33,29.87,29.60,10,2,11,0.21
2013-4-13,77.7,63.2,49.3,41.7,36.9,29.3,72,42,19,29.99,29.86,7,1,8,0.00
2013-4-14,63.0,55.9,47.1,55.2,46.5,35.8,95,72,47,30.03,29.90,6,0,6,0.12
2013-4-15,73.8,62.9,54.9,60.8,57.2,53.4,98,83,60,30.13,29.91,4,0,5,0.04
2013-4-16,79.9,67.9,59.7,63.9,61.1,57.2,97,80,55,30.23,30.12,6,0,6,0.00
2013-4-17,84.7,71.4,62.2,65.3,62.6,60.3,95,76,49,30.19,30.02,6,0,7,0.00
2013-4-18,79.7,70.0,61.9,63.1,61.4,59.5,96,76,53,30.05,29.87,7,0,9,0.00
2013-4-19,69.4,59.1,45.7,65.5,55.5,38.5,96,88,76,29.97,29.69,11,1,11,0.66
2013-4-20,65.5,51.8,39.2,38.8,31.9,24.3,79,50,23,30.22,29.96,8,1,8,0.00
2013-4-21,68.7,55.4,41.5,42.1,38.0,32.7,83,55,31,30.34,30.21,8,1,8,0.00
2013-4-22,69.8,57.2,47.3,45.9,42.2,38.7,75,59,40,30.31,30.13,9,0,9,0.00
2013-4-23,73.0,58.4,44.2,51.8,43.6,36.5,81,60,38,30.22,30.05,5,0,6,0.00
2013-4-24,75.0,61.7,52.2,61.3,55.8,49.1,97,82,54,30.09,30.01,7,0,7,0.11
2013-4-25,73.8,58.5,42.4,59.0,39.0,18.5,96,58,15,30.26,30.06,10,1,12,0.00
2013-4-26,73.9,58.5,41.4,48.0,39.6,30.7,85,52,31,30.37,30.24,6,0,6,0.00
2013-4-27,62.2,56.6,53.2,55.6,53.1,46.2,97,88,59,30.33,30.16,8,0,8,0.85
2013-4-28,55.8,54.3,52.0,55.2,53.5,51.1,98,97,96,30.21,30.00,5,0,5,2.69
2013-4-29,71.6,60.2,54.1,61.5,56.1,53.8,99,88,60,30.04,29.90,4,0,4,0.00
2013-4-30,79.3,63.8,50.5,62.8,56.7,49.6,98,80,47,30.08,29.93,4,0,4,0.00
2013-5-1,69.3,63.3,58.8,59.7,56.4,54.7,95,79,63,30.18,30.07,9,0,9,0.00
2013-5-2,63.9,60.1,58.6,58.6,56.6,54.9,92,88,81,30.19,30.11,9,0,9,0.00
2013-5-3,60.6,57.8,56.7,57.6,55.7,53.2,96,93,78,30.13,29.97,8,1,8,0.15
2013-5-4,57.0,52.3,48.7,54.9,50.6,46.6,98,94,72,29.97,29.83,8,1,8,1.78
2013-5-5,59.2,54.2,49.5,57.2,53.2,48.6,98,96,90,29.84,29.73,10,0,10,1.84
2013-5-6,56.1,50.7,45.1,52.0,48.6,44.6,99,93,79,29.89,29.76,3,0,3,1.85
2013-5-7,69.6,58.0,48.6,57.4,52.4,47.8,99,83,57,29.94,29.84,4,0,4,0.17
2013-5-8,75.4,62.7,52.3,60.1,55.4,51.3,97,79,52,30.02,29.91,7,0,7,0.00
2013-5-9,81.9,66.9,54.3,63.5,57.8,53.2,98,76,43,30.07,29.99,7,0,7,0.00
2013-5-10,78.6,66.9,55.4,64.9,60.0,54.1,97,80,56,30.05,29.91,4,0,5,0.00
2013-5-11,74.7,66.3,58.3,65.1,61.2,56.8,97,84,65,29.95,29.82,5,0,5,0.04
2013-5-12,69.1,59.8,50.2,60.6,45.8,34.0,97,65,33,30.06,29.87,10,1,11,0.00
2013-5-13,69.4,56.1,41.7,41.5,36.5,30.0,86,51,25,30.19,30.05,9,1,9,0.00
2013-5-14,77.9,60.9,41.7,55.8,46.8,37.6,90,63,36,30.24,30.07,5,0,6,0.00
2013-5-15,87.1,72.0,58.6,61.0,57.5,53.8,86,63,37,30.10,29.96,5,0,6,0.00
2013-5-16,82.9,69.4,60.1,65.1,60.9,56.5,90,76,51,30.04,29.94,3,0,3,0.00
2013-5-17,81.3,69.6,58.6,66.0,60.5,54.9,97,75,43,30.06,29.97,4,0,4,0.00
2013-5-18,74.8,67.7,63.7,66.9,65.0,62.4,98,91,73,30.05,29.99,3,0,3,0.22
2013-5-19,68.2,66.0,63.9,67.5,65.4,63.1,99,98,95,30.06,29.96,4,0,4,3.90
2013-5-20,84.6,71.8,61.0,72.0,66.8,60.6,100,86,65,30.08,29.96,2,0,2,0.01
2013-5-21,88.3,75.7,65.5,72.5,68.4,64.6,99,80,51,30.00,29.86,3,0,3,0.01
2013-5-22,85.1,72.4,64.6,72.1,66.8,62.8,98,84,63,29.95,29.81,4,0,4,0.00
2013-5-23,81.1,72.3,65.8,67.6,63.0,54.7,99,75,52,29.92,29.84,11,1,11,0.82
2013-5-24,75.4,65.9,57.2,56.3,50.4,42.4,89,60,34,30.16,29.92,10,1,10,0.00
2013-5-25,78.4,63.4,46.8,51.8,46.3,40.8,88,56,33,30.28,30.14,4,0,5,0.00
2013-5-26,80.8,66.4,52.0,57.4,50.1,45.7,84,59,36,30.24,30.11,5,0,5,0.00
2013-5-27,84.9,71.2,58.3,63.5,58.7,52.7,87,67,43,30.20,30.06,3,0,3,0.00
2013-5-28,85.3,74.0,64.6,67.1,62.4,58.8,88,69,46,30.16,30.07,4,0,4,0.00
2013-5-29,82.6,72.2,62.2,66.7,63.4,59.9,93,75,54,30.19,30.09,5,0,5,0.00
2013-5-30,82.8,72.2,64.2,68.4,65.3,61.7,95,80,57,30.22,30.09,6,0,6,0.00
2013-5-31,82.9,73.8,66.0,69.1,66.2,63.9,95,79,57,30.17,30.03,4,0,4,0.00
2013-6-1,81.9,74.4,66.7,70.2,67.3,64.0,93,79,63,30.07,29.94,4,0,4,0.00
2013-6-2,85.3,72.6,66.9,73.4,68.7,65.1,98,88,65,29.96,29.82,9,0,9,0.39
2013-6-3,82.9,72.4,65.5,73.6,67.7,64.4,99,87,59,29.92,29.81,5,0,5,0.02
2013-6-4,86.7,74.0,61.3,69.8,65.6,60.3,97,77,52,29.97,29.89,3,0,3,0.00
2013-6-5,82.4,73.2,66.0,72.9,68.6,64.8,97,86,70,30.00,29.86,6,0,6,0.63
2013-6-6,75.6,69.5,64.9,71.1,67.5,64.0,98,94,84,29.89,29.72,3,0,3,0.01
2013-6-7,83.7,71.7,65.7,72.0,67.9,63.7,98,89,63,29.80,29.63,7,0,9,0.38
2013-6-8,81.5,71.6,62.1,69.8,66.4,61.5,99,85,64,30.04,29.79,4,0,4,0.00
2013-6-9,84.9,73.4,67.3,73.4,69.6,66.4,98,89,63,30.06,29.96,3,0,4,0.64
2013-6-10,76.3,71.0,65.8,71.2,69.0,64.6,99,94,80,29.99,29.89,5,0,5,0.31
2013-6-11,85.6,77.3,71.1,76.3,71.8,70.0,98,84,61,29.99,29.91,7,0,7,0.11
2013-6-12,90.9,79.9,70.0,77.0,72.9,68.4,96,81,57,30.00,29.90,6,0,6,0.00
2013-6-13,88.5,77.6,69.6,76.5,72.4,67.6,98,85,59,29.91,29.68,14,1,14,0.96
2013-6-14,83.8,73.2,63.5,69.6,64.9,61.3,100,78,50,29.96,29.76,3,0,3,0.00
2013-6-15,84.2,73.0,61.7,65.8,62.3,58.1,90,71,48,30.09,29.96,4,0,4,0.00
2013-6-16,86.5,74.5,62.2,72.0,67.1,60.8,98,80,53,30.11,29.96,4,0,4,0.03
2013-6-17,83.5,73.0,67.6,74.3,69.8,66.9,99,90,72,30.03,29.89,3,0,3,0.56
2013-6-18,81.3,72.7,68.9,74.1,70.4,68.2,98,93,76,29.91,29.78,6,0,6,0.38
2013-6-19,79.3,73.1,68.2,71.1,68.8,66.7,98,87,72,30.04,29.84,3,0,3,0.00
2013-6-20,83.7,73.5,65.5,69.8,67.3,64.6,98,83,60,30.15,30.03,5,0,5,0.00
2013-6-21,83.7,73.7,65.5,68.7,66.0,63.7,96,78,51,30.20,30.10,6,0,6,0.00
2013-6-22,84.4,73.6,64.8,67.6,65.1,62.6,95,77,52,30.18,30.05,5,0,5,0.00
2013-6-23,85.8,75.0,65.5,72.7,68.4,63.7,96,81,59,30.15,30.05,3,0,3,0.01
2013-6-24,85.8,76.3,69.6,74.8,71.1,68.7,98,85,66,30.17,30.05,3,0,3,0.00
2013-6-25,86.2,74.8,67.8,75.6,71.3,66.9,98,89,65,30.11,29.98,5,0,5,0.40
2013-6-26,85.8,76.3,69.3,76.1,72.5,68.9,100,89,68,30.02,29.88,3,0,5,0.00
2013-6-27,83.8,78.1,73.4,75.9,73.5,70.7,97,86,67,29.93,29.74,7,0,7,0.00
2013-6-28,90.7,77.4,69.8,76.5,71.8,67.8,98,85,49,29.79,29.58,9,0,9,0.55
2013-6-29,85.8,74.5,65.7,75.2,68.2,63.9,99,83,50,29.67,29.61,4,0,4,0.00
2013-6-30,85.8,73.8,63.7,72.3,67.2,62.2,97,81,53,29.75,29.64,4,0,4,0.00
2013-7-1,84.9,72.0,67.5,71.6,68.4,66.0,99,90,58,29.89,29.74,5,0,5,1.03
2013-7-2,85.5,74.6,68.2,73.0,69.8,67.6,99,86,58,30.04,29.87,3,0,3,0.00
2013-7-3,75.4,70.1,66.4,73.2,68.9,65.7,99,96,85,30.13,30.02,4,0,5,2.60
2013-7-4,76.6,69.9,66.4,74.1,69.3,65.8,99,98,89,30.15,30.07,7,0,7,0.97
2013-7-5,80.2,72.2,68.5,73.4,70.4,67.3,99,94,76,30.17,30.09,4,0,4,0.95
2013-7-6,82.6,73.4,68.0,75.9,71.0,67.5,100,93,72,30.14,30.03,2,0,5,0.72
2013-7-7,76.1,73.0,70.0,74.5,71.9,69.4,99,97,90,30.12,30.05,9,0,9,0.05
2013-7-8,88.3,76.8,71.1,76.3,72.9,70.7,100,89,61,30.14,30.04,3,0,3,0.14
2013-7-9,88.2,77.0,71.1,77.9,73.7,70.5,99,90,69,30.12,30.00,4,0,4,0.00
2013-7-10,88.2,76.4,71.8,79.0,73.6,71.1,99,92,68,30.05,29.91,3,0,3,0.60
2013-7-11,79.3,74.5,71.1,74.8,72.5,70.5,99,94,84,29.92,29.82,2,0,2,0.01
2013-7-12,88.3,74.4,67.5,75.9,71.4,66.6,99,91,62,29.91,29.81,3,0,4,0.54
2013-7-13,77.5,71.4,67.3,72.0,68.8,66.0,98,92,80,30.03,29.91,6,0,6,0.01
2013-7-14,78.6,73.0,70.0,75.4,71.5,69.1,99,95,83,30.19,30.01,6,0,6,0.36
2013-7-15,83.8,75.4,70.0,75.0,71.9,69.3,99,89,71,30.25,30.16,6,0,6,0.00
2013-7-16,88.0,77.7,69.4,74.3,71.7,69.1,99,83,59,30.27,30.18,4,0,4,0.00
2013-7-17,92.3,76.3,68.4,77.2,71.3,66.7,99,86,56,30.25,30.07,5,0,5,1.87
2013-7-18,87.6,76.4,67.5,75.9,71.5,67.1,100,86,63,30.18,30.01,3,0,3,0.01
2013-7-19,90.1,78.5,70.3,77.2,73.1,69.8,99,85,57,30.07,29.93,2,0,2,0.00
2013-7-20,88.9,75.0,70.2,77.2,71.3,68.4,99,89,65,29.99,29.89,5,0,5,0.01
2013-7-21,88.0,76.4,68.9,77.0,72.0,68.2,99,87,65,29.98,29.86,3,0,4,0.12
2013-7-22,82.0,73.7,69.4,75.7,71.9,69.1,99,94,77,29.96,29.82,3,0,3,0.49
2013-7-23,80.4,73.9,68.7,74.1,71.2,68.4,99,92,76,29.91,29.78,6,0,6,0.00
2013-7-24,86.4,74.4,68.4,77.4,71.3,65.7,99,91,65,29.83,29.75,7,0,7,1.52
2013-7-25,86.9,73.8,66.0,73.9,69.1,65.7,100,87,54,29.96,29.79,3,0,4,0.00
2013-7-26,86.2,73.3,66.7,75.2,70.0,65.7,99,90,66,30.03,29.93,0,0,0,0.39
2013-7-27,78.6,73.1,68.9,74.5,71.1,67.8,100,94,82,29.97,29.86,0,0,0,0.02
2013-7-28,85.6,74.3,65.8,73.2,69.8,65.5,100,87,62,29.99,29.88,0,0,0,0.00
2013-7-29,85.5,73.0,65.5,69.8,66.2,61.3,98,81,48,30.11,29.97,0,0,0,0.00
2013-7-30,87.4,73.7,60.4,72.3,66.5,59.0,96,80,57,30.17,30.06,0,0,0,0.00
2013-7-31,76.6,74.0,71.1,72.9,71.2,69.8,97,91,84,30.09,29.91,0,0,0,0.03
2013-8-1,85.3,74.6,68.4,76.5,71.8,67.8,99,92,69,29.95,29.84,0,0,0,0.39
2013-8-2,88.3,75.3,65.5,74.7,69.4,64.2,99,84,50,29.99,29.88,0,0,0,0.00
2013-8-3,83.5,74.6,65.1,73.9,69.7,64.2,99,86,66,30.01,29.94,0,0,0,0.00
2013-8-4,87.1,77.7,70.0,73.8,70.8,66.0,96,81,59,29.97,29.90,0,0,0,0.00
2013-8-5,87.1,75.4,66.7,73.9,69.1,64.6,94,82,53,30.01,29.91,0,0,0,0.00
2013-8-6,86.4,78.2,72.1,75.6,72.9,69.6,96,85,62,29.96,29.90,0,0,0,0.00
2013-8-7,78.3,73.6,70.7,75.4,72.4,70.3,99,96,86,30.01,29.94,0,0,0,3.38
2013-8-8,80.6,74.3,71.4,76.1,73.2,71.1,99,96,85,30.02,29.96,0,0,0,0.20
2013-8-9,88.3,78.1,71.1,79.2,74.7,70.9,100,90,67,30.04,29.96,0,0,0,0.09
2013-8-10,90.9,78.0,72.3,78.1,74.4,71.8,100,90,62,30.06,29.99,0,0,0,0.06
2013-8-11,88.9,77.3,69.1,78.1,73.3,68.7,100,88,69,30.11,30.00,0,0,0,0.00
2013-8-12,89.4,76.4,70.3,78.6,73.3,69.6,99,91,64,30.06,29.93,0,0,0,0.04
2013-8-13,85.8,76.6,71.1,76.3,72.9,70.7,99,89,70,29.96,29.81,0,0,0,0.00
2013-8-14,79.7,74.2,70.0,72.7,70.3,66.7,96,88,75,29.98,29.83,0,0,0,0.00
2013-8-15,73.0,68.7,65.8,67.5,62.7,59.9,93,82,66,30.06,29.96,0,0,0,0.00
2013-8-16,69.4,66.0,62.6,64.6,61.5,59.5,93,86,76,30.09,30.01,0,0,0,0.00
2013-8-17,66.6,64.4,63.0,64.4,62.3,60.1,99,93,84,30.12,30.05,1,0,1,0.36
2013-8-18,71.4,67.5,64.2,70.3,66.9,63.9,99,98,92,30.17,30.07,0,0,0,0.89
2013-8-19,74.5,69.9,66.9,72.0,69.1,66.7,100,97,91,30.13,30.03,1,0,1,1.61
2013-8-20,77.7,72.2,68.0,73.4,70.5,67.6,100,94,84,30.14,30.05,1,0,1,0.00
2013-8-21,79.5,73.1,70.3,73.8,71.5,70.0,99,95,78,30.20,30.07,1,0,1,0.13
2013-8-22,88.2,73.9,68.5,76.8,71.3,68.0,100,92,62,30.12,30.00,2,0,2,0.14
2013-8-23,86.7,75.1,66.4,75.9,70.7,66.4,100,88,61,30.04,29.92,6,0,6,0.00
2013-8-24,82.4,72.8,66.9,70.5,67.9,65.1,98,85,65,30.22,29.99,7,0,7,0.00
2013-8-25,81.3,70.9,62.1,66.6,63.4,59.2,96,79,54,30.32,30.21,5,0,5,0.00
2013-8-26,81.5,70.0,60.8,68.7,64.5,59.9,98,84,58,30.28,30.11,5,0,5,0.00
2013-8-27,86.5,72.9,61.9,71.8,66.9,61.3,99,83,54,30.13,29.99,2,0,3,0.00
2013-8-28,89.8,76.3,65.8,75.2,70.5,65.3,99,84,52,30.01,29.91,2,0,2,0.00
2013-8-29,89.4,78.5,69.3,77.0,72.6,68.0,97,83,60,29.95,29.85,4,0,4,0.00
2013-8-30,86.5,77.2,72.0,76.5,73.4,70.7,98,89,70,29.98,29.88,3,0,3,0.00
2013-8-31,89.8,75.9,70.0,77.5,72.8,66.9,99,91,63,29.93,29.82,9,0,9,1.39
2013-9-1,85.5,74.3,68.5,76.8,72.1,68.5,100,93,71,29.90,29.80,5,0,5,0.00
2013-9-2,79.5,74.1,70.3,74.5,71.7,69.8,100,93,77,29.91,29.81,6,0,6,0.00
2013-9-3,86.4,76.4,70.2,76.1,71.6,68.0,99,86,62,29.93,29.81,5,0,5,0.00
2013-9-4,87.8,74.2,65.1,71.6,68.0,64.6,99,83,53,30.05,29.91,3,0,3,0.00
2013-9-5,87.3,74.4,65.7,73.8,69.4,65.1,99,86,58,30.09,30.00,2,0,2,0.00
2013-9-6,83.8,73.3,65.8,69.3,67.3,65.1,99,83,56,30.12,30.01,6,0,6,0.00
2013-9-7,84.6,72.7,63.7,70.7,66.9,63.1,99,84,56,30.10,29.96,4,0,4,0.00
2013-9-8,87.8,74.5,64.6,72.7,67.9,63.7,99,82,51,29.98,29.88,4,0,4,0.00
2013-9-9,87.4,75.7,66.9,72.3,69.2,65.7,98,82,56,30.07,29.95,4,0,4,0.00
2013-9-10,86.9,75.7,67.8,74.3,69.9,66.6,97,83,60,30.18,30.07,5,0,6,0.00
2013-9-11,88.3,75.0,65.7,72.9,68.8,65.1,99,83,51,30.18,30.05,2,0,2,0.00
2013-9-12,85.5,73.1,67.6,75.0,69.9,66.4,98,90,65,30.06,29.86,11,0,11,0.15
2013-9-13,83.7,72.7,61.5,70.7,65.0,55.8,98,79,50,29.87,29.77,5,0,5,0.00
2013-9-14,78.4,65.4,54.5,62.2,57.8,53.4,98,79,51,30.05,29.84,5,0,6,0.00
2013-9-15,80.1,69.4,61.3,69.8,64.2,58.6,95,84,66,30.14,30.05,5,0,5,0.00
2013-9-16,85.3,72.4,63.9,70.7,65.5,63.0,99,81,53,30.10,30.01,3,0,4,0.00
2013-9-17,73.8,68.6,65.5,64.4,61.5,59.0,93,79,65,30.22,30.07,6,0,7,0.00
2013-9-18,73.9,66.9,62.4,64.0,60.7,57.4,94,81,66,30.22,30.11,4,0,4,0.00
2013-9-19,81.9,68.9,58.6,67.6,63.3,57.7,98,84,60,30.16,30.04,3,0,3,0.00
2013-9-20,84.7,72.0,61.9,69.4,65.4,61.0,99,82,51,30.05,29.87,3,0,3,0.00
2013-9-21,70.3,67.8,62.2,69.6,66.5,61.7,99,96,88,29.89,29.64,3,0,4,1.54
2013-9-22,77.4,65.4,56.3,67.1,61.2,55.9,100,87,62,29.85,29.71,3,0,3,0.00
2013-9-23,76.8,65.9,59.2,64.6,61.0,58.3,98,85,61,29.99,29.85,4,0,4,0.00
2013-9-24,70.0,65.4,60.4,64.4,62.1,58.6,96,89,78,30.01,29.88,4,0,4,0.02
2013-9-25,64.6,63.1,60.4,63.7,62.5,59.9,99,98,96,29.88,29.80,3,0,3,1.28
2013-9-26,75.9,65.9,57.6,66.7,62.6,57.2,100,90,69,29.99,29.84,3,0,3,0.00
2013-9-27,77.2,65.5,55.6,64.2,59.9,55.0,99,84,58,30.12,29.98,4,0,5,0.00
2013-9-28,73.4,63.5,55.8,60.6,58.0,55.0,98,84,60,30.20,30.09,4,0,4,0.00
2013-9-29,72.3,62.2,53.6,60.1,56.9,52.5,98,84,58,30.13,30.01,4,0,4,0.00
2013-9-30,75.0,63.0,55.2,61.0,58.1,54.7,99,85,58,30.07,29.98,3,0,3,0.00
2013-10-1,77.4,64.5,54.1,64.9,59.9,53.2,99,86,59,30.14,30.03,2,0,3,0.00
2013-10-2,81.9,67.7,57.2,67.6,62.2,56.7,100,85,50,30.13,30.03,3,0,3,0.00
2013-10-3,82.9,69.6,60.4,67.6,63.7,59.7,99,84,52,30.11,30.03,4,0,4,0.00
2013-10-4,83.8,68.7,58.5,67.8,63.5,57.9,99,85,55,30.13,30.04,3,0,3,0.00
2013-10-5,84.6,70.4,60.4,68.7,64.4,59.9,100,84,52,30.09,29.98,4,0,4,0.00
2013-10-6,82.8,70.2,62.4,68.5,65.3,61.5,98,86,56,30.00,29.82,5,0,5,1.14
2013-10-7,74.1,66.3,59.0,67.6,62.2,55.6,99,88,55,29.92,29.77,6,0,6,0.32
2013-10-8,73.0,64.0,57.7,58.6,56.6,52.3,96,78,55,30.12,29.91,8,0,8,0.00
2013-10-9,72.5,61.4,50.7,57.9,52.4,45.5,95,74,46,30.18,30.08,7,0,7,0.00
2013-10-10,76.5,62.1,50.5,61.2,55.3,49.6,99,81,52,30.11,29.97,5,0,5,0.00
2013-10-11,79.0,63.8,52.5,63.5,56.1,51.3,98,78,45,30.02,29.92,6,0,6,0.00
2013-10-12,79.9,63.4,53.1,63.3,57.2,52.2,99,83,53,30.03,29.95,4,0,4,0.00
2013-10-16,64.2,64.2,64.2,63.3,63.3,63.1,97,97,96,29.96,29.94,0,0,1,0.01
2013-10-17,67.5,64.2,59.7,66.9,63.7,59.4,99,99,97,29.94,29.84,2,0,2,0.55
2013-10-18,70.3,59.9,53.2,60.3,56.6,52.9,100,90,59,29.98,29.88,3,0,3,0.00
2013-10-19,61.3,56.9,52.9,57.2,55.0,52.0,98,93,80,29.94,29.88,5,0,5,0.01
2013-10-20,67.8,53.4,42.3,52.2,45.8,34.2,99,79,31,30.05,29.94,2,0,2,0.01
2013-10-21,66.6,54.6,45.0,58.5,51.7,43.9,99,90,71,30.12,29.99,3,0,3,0.00
2013-10-22,69.6,59.5,54.1,58.6,55.2,50.9,99,87,57,30.02,29.81,4,0,4,0.01
2013-10-23,59.2,51.3,40.8,51.3,42.9,33.6,97,75,49,30.05,29.78,13,1,13,0.00
2013-10-24,62.2,48.0,37.9,44.2,39.4,34.7,91,74,45,30.18,30.05,5,0,5,0.00
2013-10-25,57.2,44.8,33.8,42.1,31.5,23.0,88,63,27,30.35,30.18,6,0,6,0.00
2013-10-26,56.8,43.9,32.5,41.5,35.9,30.7,94,75,50,30.34,30.15,5,0,5,0.00
2013-10-27,66.4,53.6,43.0,54.5,47.0,36.7,92,79,64,30.15,30.08,4,0,4,0.00
2013-10-28,63.1,56.9,52.9,58.3,55.1,51.3,99,94,82,30.25,30.11,3,0,3,0.13
2013-10-29,69.1,58.1,49.5,59.7,54.8,48.9,99,90,68,30.32,30.22,3,0,3,0.00
2013-10-30,75.4,62.5,54.5,61.5,58.1,54.0,99,87,58,30.27,30.12,2,0,5,0.00
2013-10-31,72.3,64.9,57.7,64.4,59.8,54.1,96,84,75,30.15,29.83,5,0,5,0.00
2013-11-1,73.2,65.2,54.9,65.1,57.8,47.7,99,79,43,29.83,29.65,6,0,0,0.00
2013-11-2,66.0,55.0,46.6,50.0,45.1,39.0,94,72,42,30.02,29.75,8,0,0,0.00
2013-11-3,63.3,50.2,40.6,44.2,40.5,36.1,94,72,39,30.30,30.02,3,0,0,0.00
2013-11-4,60.6,49.0,40.5,41.7,39.5,37.0,91,71,46,30.45,30.30,7,0,0,0.00
2013-11-5,61.3,49.7,41.7,45.9,37.8,33.1,88,66,37,30.48,30.34,6,0,0,0.00
2013-11-6,69.1,59.2,50.2,58.1,53.3,45.1,91,81,66,30.35,30.09,5,0,0,0.00
2013-11-7,64.6,55.6,40.8,59.9,48.6,35.8,98,79,47,30.16,29.99,10,1,0,0.00
2013-11-8,61.2,46.5,34.2,37.0,31.1,22.1,91,61,24,30.31,30.15,4,0,0,0.00
2013-11-9,57.6,47.2,38.1,40.8,35.1,29.5,86,64,41,30.35,30.21,3,0,0,0.00
2013-11-10,71.8,56.0,44.2,42.6,37.0,27.9,81,53,23,30.25,30.14,7,0,0,0.00
2013-11-11,62.2,49.5,39.4,41.0,36.3,31.3,90,64,34,30.31,30.16,5,0,0,0.00
2013-11-12,61.7,45.1,31.5,43.9,32.9,16.7,85,63,44,30.43,30.10,10,1,0,0.00
2013-11-13,49.5,35.8,23.7,28.2,18.3,9.5,85,54,21,30.57,30.43,4,0,0,0.00
2013-11-14,57.0,39.7,25.3,30.2,24.1,17.6,88,59,23,30.51,30.32,3,0,0,0.00
2013-11-15,49.8,44.5,34.2,48.7,39.5,26.4,97,83,53,30.33,30.16,2,0,0,0.00
2013-11-16,57.9,54.0,49.6,55.2,52.7,48.7,98,95,91,30.23,30.14,3,0,0,0.00
2013-11-17,60.1,58.4,56.7,59.7,57.5,55.0,99,97,93,30.17,29.90,3,0,2,0.39
2013-11-18,70.5,60.3,48.7,64.2,46.6,33.1,100,66,30,29.99,29.85,11,1,11,0.02
2013-11-19,57.9,48.0,37.4,38.5,34.5,30.6,80,61,42,30.18,29.97,5,0,5,0.00
2013-11-20,54.1,46.5,39.6,34.7,32.1,29.7,71,58,44,30.35,30.18,6,1,7,0.00
2013-11-21,50.4,48.9,47.1,49.1,43.1,34.3,98,81,58,30.41,30.32,7,0,7,0.00
2013-11-22,58.1,54.3,49.6,57.0,53.5,49.1,99,97,93,30.36,30.14,2,0,3,0.08
2013-11-23,59.5,52.8,39.0,57.2,46.1,26.6,99,80,50,30.20,30.07,11,1,11,0.00
2013-11-24,46.9,37.5,28.8,28.9,19.3,15.3,69,49,29,30.48,30.19,6,0,6,0.00
2013-11-25,42.3,35.7,28.6,30.6,17.4,11.1,91,48,31,30.51,30.25,7,0,7,0.02
2013-11-26,48.7,41.6,32.7,48.6,41.0,30.6,99,98,92,30.25,29.60,7,0,8,2.55
2013-11-27,45.7,35.3,25.3,45.5,28.8,18.1,99,78,60,30.24,29.60,11,2,18,0.10
2013-11-28,47.5,33.0,20.7,27.5,23.0,18.1,91,69,40,30.49,30.24,4,0,4,0.00
2013-11-29,60.1,40.3,25.5,30.9,25.7,18.9,92,63,22,30.52,30.43,3,0,3,0.00
2013-12-3,52.3,52.1,51.6,52.0,51.7,51.3,99,99,99,29.91,29.87,2,0,6,0.00
2013-12-4,60.3,56.1,52.3,60.3,56.1,52.0,100,100,99,30.02,29.90,2,0,2,0.15
2013-12-5,69.3,64.5,60.1,67.6,64.3,60.1,100,99,93,30.05,29.95,8,0,8,0.52
2013-12-6,74.5,68.3,60.1,67.8,65.6,59.2,100,91,78,30.00,29.90,13,1,13,0.36
2013-12-7,60.1,51.0,43.5,59.5,48.7,43.3,99,92,78,30.28,29.96,7,1,7,0.03
2013-12-8,49.3,42.7,38.7,46.4,41.9,38.1,98,97,90,30.31,30.19,7,1,7,0.39
2013-12-9,48.7,43.2,38.5,48.6,42.9,37.9,100,99,98,30.23,30.01,3,0,3,1.39
2013-12-10,49.5,44.2,30.9,49.5,38.8,25.7,100,83,54,30.32,29.92,16,1,16,0.23
2013-12-11,52.3,38.0,25.3,33.3,26.1,21.6,97,66,35,30.45,30.30,5,0,5,0.00
2013-12-12,49.6,37.9,29.8,24.6,17.1,5.9,71,46,18,30.42,30.32,11,1,11,0.00
2013-12-13,51.3,38.2,25.3,28.6,22.3,15.1,87,55,31,30.38,30.19,3,0,3,0.00
2013-12-14,47.3,44.9,41.9,47.1,40.5,28.4,99,86,56,30.21,29.80,5,0,5,1.20
2013-12-15,48.6,39.9,30.0,48.4,35.0,27.7,99,83,68,30.16,29.79,13,2,13,0.00
2013-12-16,54.7,39.2,28.8,34.9,30.0,27.1,94,73,36,30.24,30.15,7,1,7,0.00
2013-12-17,58.8,47.2,35.4,37.9,34.5,28.2,84,63,42,30.21,30.05,13,2,13,0.00
2013-12-18,54.9,42.9,34.0,28.6,19.7,6.4,63,42,14,30.29,30.12,10,1,12,0.00
2013-12-19,61.9,43.4,28.8,31.1,25.7,20.5,81,53,23,30.34,30.21,3,0,3,0.00
2013-12-20,57.9,47.0,34.9,48.4,39.6,30.2,89,76,59,30.24,30.13,4,0,4,0.00
2013-12-21,61.5,56.3,50.5,61.3,55.0,47.1,100,96,88,30.13,29.93,4,0,4,0.06
2013-12-22,65.8,59.9,56.7,65.1,59.5,56.3,100,99,94,30.04,29.88,8,0,8,3.78
2013-12-23,56.7,49.7,35.8,56.7,46.8,32.5,100,90,76,30.19,29.98,11,1,11,0.01
2013-12-24,40.8,33.4,26.1,32.5,24.4,18.1,92,71,44,30.40,30.17,11,1,11,0.00
2013-12-25,42.1,32.2,24.4,24.1,21.0,17.2,86,65,42,30.51,30.36,6,0,6,0.00
2013-12-26,55.6,39.4,27.1,30.9,24.9,21.6,84,59,27,30.40,30.25,8,0,8,0.00
2013-12-27,51.4,38.4,28.8,31.5,26.4,22.5,89,65,36,30.48,30.32,6,0,6,0.00
2013-12-28,45.9,37.3,28.9,38.7,32.2,25.5,97,82,59,30.41,30.03,6,0,7,0.69
2013-12-29,53.4,44.5,39.2,48.2,42.4,38.3,99,92,79,30.03,29.84,10,1,10,0.40
2013-12-30,49.3,43.5,40.3,43.7,40.0,37.8,95,88,77,30.18,30.00,7,1,7,0.00
2013-12-31,48.6,39.6,33.4,38.1,28.9,19.4,92,69,34,30.35,30.15,9,1,9,0.00
2014-1-1,48.6,39.7,32.4,37.4,32.1,28.0,90,75,54,30.37,30.13,3,0,3,0.00
2014-1-2,46.6,39.6,24.4,46.0,36.0,14.7,98,87,65,30.14,29.73,19,1,19,0.30